Baltimore, Maryland
Traffic Map
Current Weather Conditions
Baltimore, Maryland
Scattered Clouds
Scattered Clouds
21°
Feels Like: 21°
Wind Chill: 21° Ceiling: Unl
Heat Index: 21° Visibility: 7mi
Dew Point: 19° Wind: 3mph
Humidity: 93% Direction: 300° (WNW)
Pressure: 29.9in Gusts: 0mph
Raw Report DataKBWI 031054Z 30003KT 7SM FEW180 SCT250 21/19 A2990 RMK AO2 SLP123 T02060194
Traffic Incident Summary
Active as of:
Severity:
Category:
InformationThere was an issue retrieving the traffic information for this location. Please try a different location or try again shortly.
Advertisements
Track Severe Weather on mobile